Aeroporto :
LOGIN :

Iscrizione | Disclaimer

   EN    FR    IT 

 










Sommario :    VFR   VFR Marginale   IFR   IFR Intensivo   IFR Molto Intensivo
Visibilità : 
Base nubi : 
>= 8 km
>= 3000ft
5 / 8 km
1000 / 3000 ft
1500m / 5 km
500 / 1000 ft
800 / 1500m
200 / 500 ft
< 800m
< 200 ft
Simboli :   Temporali  Nebbia  Neve Forte  Precipitazioni Forti  Vento > 20 kt
SIGMETs :   Varie  Temporali  Ghiacco  Turbolenza  Onda orograficha  Ceneri Vulcaniche






- Altitudine del aeroporto : 791 ft
- Codice IATA : KRK


EPKK - Krakow-Balice

ULTIMO METAR :
  • 271430Z VRB02KT 9999 FEW062 19/09 Q1011

METARs OBSOLETI :
  • 271400Z VRB02KT 9999 BKN060 20/09 Q1011
  • 271330Z VRB02KT 9999 FEW061 20/08 Q1011
  • 271300Z 23005KT 200V260 9999 SCT050 19/08 Q1011
  • 271230Z 24004KT 9999 SCT046 19/08 Q1011
  • 271200Z 23008KT 180V260 9999 SCT046 20/08 Q1011

TAF TAF EPKK
Valido dal 27 a 15 ore il 28 a 15 ore UTC


271430Z 2715/2815 VRB02KT 9999 SCT025
BECMG 2718/2721 2500 BR
BECMG 2721/2723 0500 FG
TEMPO 2722/2807 0100 FG BKN001
BECMG 2808/2810 7000



MetMap, La meteo Aeronautica in un colpo d'occhio ! - Copyright ORBIFLY Dicembre 2007 - Disclaimer

ORBIFLY MET'MAP TEAM :

Programmazione e sviluppo : Alexandra Zaïnal
Concezione : Baudouin d'Aumeries
Aiuto per la programmazione : Marc-Olivier Méhu
Supporto tecnico e logistico : Manuel Goepfert
Aiuto per la traduzione : Arnaldo La Scala

Contatto : metmap@orbifly.com




FONTI E CREDITI :

   NOAA